KBLV/BLV METAR and TAF weather

Enter ICAO airport designator
Station Type Date Time Source
KBLV METAR 2021/01/20 18:56 UTC NOAA

KBLV 201856Z AUTO 21010KT 10SM CLR 05/M05 A3020 RMK AO2 PRESFR SLP233 T00451053 $


Station Type Date Time Source
KBLV Decoded METAR 2021/01/20 18:56 UTC NOAA

Belleville, Scott AFB/MidAmerica Airport, IL, United States (KBLV) 38-33N 089-51W
Jan 20, 2021 - 01:56 PM EST / 2021.01.20 1856 UTC
Wind: from the SSW (210 degrees) at 12 MPH (10 KT):0
Visibility: 10 mile(s):0
Sky conditions: clear
Temperature: 40.1 F (4.5 C)
Dew Point: 22.5 F (-5.3 C)
Relative Humidity: 48%
Pressure (altimeter): 30.2 in. Hg (1022 hPa)
Pressure tendency: falling rapidly
ob: KBLV 201856Z AUTO 21010KT 10SM CLR 05/M05 A3020 RMK AO2 PRESFR SLP233 T00451053
cycle: 19

Station Type Date Time Source
KBLV TAF 2021/01/20 16:07 UTC NOAA

TAF KBLV 201600Z 2016/2122 23012KT 9999 SKC 510105 QNH2992INS
BECMG 2108/2109 27009KT 9999 SCT005 QNH2990INS
BECMG 2115/2116 28010G15KT 9999 SKC QNH2992INS TX07/2020Z TN00/2016Z

Example: see airport list